Time;durP1;ratioP1;P1;durP2;ratioP2;P2;SDS_P1;SDS_P2;PMS_P1;PMS_P2;Temp;Humidity;BMP_temperature;BMP_pressure;BME280_temperature;BME280_humidity;BME280_pressure;Samples;Min_cycle;Max_cycle;Signal;HPM_P1;HPM_P2
2023/01/12 00:02:16;;;;;;;6.30;1.33;;;;;;;5.76;100.00;98480.09;5037432;28;20232;-72
2023/01/12 00:04:43;;;;;;;6.07;1.10;;;;;;;5.71;100.00;98478.97;5037418;28;20216;-73
2023/01/12 00:07:12;;;;;;;4.67;1.40;;;;;;;5.67;100.00;98473.25;5037385;28;20209;-72
2023/01/12 00:09:39;;;;;;;4.50;1.23;;;;;;;5.82;100.00;98479.41;5037041;28;20536;-72
2023/01/12 00:12:07;;;;;;;4.80;1.50;;;;;;;6.07;100.00;98477.34;5037000;28;20237;-73
2023/01/12 00:14:34;;;;;;;5.10;1.30;;;;;;;6.09;100.00;98480.63;5037825;28;20210;-73
2023/01/12 00:17:01;;;;;;;5.63;1.40;;;;;;;6.16;100.00;98473.63;5037210;28;20210;-72
2023/01/12 00:19:27;;;;;;;3.37;1.10;;;;;;;6.16;100.00;98474.44;5037049;28;20213;-73
2023/01/12 00:21:58;;;;;;;7.37;1.63;;;;;;;6.15;100.00;98470.16;5036963;28;20228;-73
2023/01/12 00:24:27;;;;;;;3.40;1.10;;;;;;;6.16;100.00;98457.78;5037091;28;20524;-73
2023/01/12 00:26:55;;;;;;;6.50;1.83;;;;;;;6.31;100.00;98466.53;5036747;28;20210;-73
2023/01/12 00:29:21;;;;;;;4.17;1.10;;;;;;;6.35;100.00;98466.00;5037444;28;20241;-73
2023/01/12 00:31:48;;;;;;;6.20;1.70;;;;;;;6.28;100.00;98462.44;5036771;28;20230;-73
2023/01/12 00:34:16;;;;;;;4.63;1.03;;;;;;;6.42;100.00;98474.00;5036854;28;20570;-73
2023/01/12 00:36:43;;;;;;;4.77;1.30;;;;;;;6.38;100.00;98470.91;5036430;28;20229;-72
2023/01/12 00:39:09;;;;;;;4.00;1.33;;;;;;;6.39;100.00;98469.91;5036848;28;20201;-73
2023/01/12 00:47:08;;;;;;;5.53;1.50;;;;;;;6.50;100.00;98460.69;5036482;28;20172;-74
2023/01/12 00:49:36;;;;;;;5.10;1.50;;;;;;;6.60;100.00;98453.31;5036522;28;20202;-73
2023/01/12 00:52:04;;;;;;;6.30;1.70;;;;;;;6.56;100.00;98446.78;5036330;28;20222;-73
2023/01/12 00:54:31;;;;;;;3.17;1.23;;;;;;;6.51;100.00;98443.88;5036424;28;20301;-73
2023/01/12 00:56:57;;;;;;;3.93;1.70;;;;;;;6.61;100.00;98449.69;5036220;28;20288;-73
2023/01/12 00:59:24;;;;;;;4.80;1.60;;;;;;;6.68;100.00;98437.34;5036012;28;20228;-73
2023/01/12 01:01:50;;;;;;;3.67;1.27;;;;;;;6.58;100.00;98447.38;5036049;28;20226;-73
2023/01/12 01:04:17;;;;;;;4.80;1.70;;;;;;;6.61;100.00;98445.19;5036118;28;20225;-73
2023/01/12 01:06:43;;;;;;;4.60;1.13;;;;;;;6.65;100.00;98443.81;5036094;28;20232;-73
2023/01/12 01:09:10;;;;;;;5.07;1.40;;;;;;;6.61;100.00;98449.69;5034564;28;20609;-73
2023/01/12 01:11:36;;;;;;;4.83;1.57;;;;;;;6.60;100.00;98448.84;5035533;28;20264;-73
2023/01/12 01:14:03;;;;;;;5.20;1.10;;;;;;;6.64;100.00;98449.28;5035810;28;20202;-73
2023/01/12 01:16:30;;;;;;;6.73;1.60;;;;;;;6.72;100.00;98455.31;5035880;28;20209;-73
2023/01/12 01:18:57;;;;;;;9.03;1.57;;;;;;;6.86;100.00;98448.34;5035581;28;20214;-73
2023/01/12 01:21:24;;;;;;;5.43;1.57;;;;;;;6.71;100.00;98452.84;5035205;28;20237;-73
2023/01/12 01:23:52;;;;;;;2.27;0.90;;;;;;;6.70;100.00;98453.84;5035632;28;20212;-73
2023/01/12 01:26:22;;;;;;;4.73;1.33;;;;;;;6.57;100.00;98453.69;5036109;28;20213;-73
2023/01/12 01:28:49;;;;;;;5.73;1.30;;;;;;;6.64;100.00;98459.84;5035325;28;20629;-73
2023/01/12 01:31:19;;;;;;;6.17;1.50;;;;;;;6.56;100.00;98459.97;5035512;28;20222;-73
2023/01/12 01:33:46;;;;;;;4.60;1.47;;;;;;;6.80;100.00;98457.84;5035219;28;20653;-73
2023/01/12 01:36:13;;;;;;;4.80;1.20;;;;;;;6.71;100.00;98458.13;5035416;28;20209;-73
2023/01/12 01:38:40;;;;;;;3.63;1.70;;;;;;;6.74;100.00;98457.75;5035353;28;20206;-73
2023/01/12 01:41:07;;;;;;;2.93;1.30;;;;;;;6.70;100.00;98459.94;5034989;28;20241;-73
2023/01/12 01:44:03;;;;;;;4.60;1.20;;;;;;;6.75;100.00;98462.03;5035572;28;20210;-73
2023/01/12 01:46:41;;;;;;;4.03;1.63;;;;;;;6.83;100.00;98459.28;5035227;28;20191;-73
2023/01/12 01:49:17;;;;;;;5.17;1.57;;;;;;;6.80;100.00;98470.22;5034778;28;20190;-73
2023/01/12 01:51:43;;;;;;;4.23;1.30;;;;;;;6.77;100.00;98470.59;5035313;28;20217;-73
2023/01/12 01:54:10;;;;;;;4.00;1.13;;;;;;;6.78;100.00;98469.59;5033725;28;20218;-73
2023/01/12 01:56:37;;;;;;;5.10;1.30;;;;;;;6.85;100.00;98475.78;5035322;28;20212;-73
2023/01/12 01:59:14;;;;;;;4.17;1.13;;;;;;;6.71;100.00;98469.53;5035181;28;20580;-73
2023/01/12 02:01:40;;;;;;;6.10;1.53;;;;;;;6.64;100.00;98473.06;5035096;28;20233;-73
2023/01/12 02:04:08;;;;;;;5.47;1.30;;;;;;;6.68;100.00;98471.69;5035324;28;20653;-73
2023/01/12 02:06:34;;;;;;;5.67;1.23;;;;;;;6.74;100.00;98463.06;5033986;28;20578;-73
2023/01/12 02:09:07;;;;;;;5.30;1.30;;;;;;;6.81;100.00;98470.06;5035096;28;20551;-73
2023/01/12 02:17:21;;;;;;;4.23;1.40;;;;;;;7.00;100.00;98455.41;5034783;28;20271;-73
2023/01/12 02:19:56;;;;;;;5.87;1.53;;;;;;;6.98;100.00;98449.50;5034756;28;20205;-73
2023/01/12 02:22:34;;;;;;;7.10;1.40;;;;;;;6.88;100.00;98433.94;5034781;28;20222;-73
2023/01/12 02:25:31;;;;;;;6.67;1.50;;;;;;;6.78;100.00;98436.06;5033694;28;20186;-73
2023/01/12 02:28:19;;;;;;;7.83;1.43;;;;;;;6.75;100.00;98432.97;5034815;28;20195;-73
2023/01/12 02:31:06;;;;;;;6.23;1.33;;;;;;;6.67;100.00;98419.88;5034700;28;20186;-73
2023/01/12 02:33:50;;;;;;;6.23;1.57;;;;;;;6.83;100.00;98430.22;5034370;28;20194;-73
2023/01/12 02:36:26;;;;;;;4.97;1.47;;;;;;;6.79;100.00;98413.09;5033570;28;20198;-73
2023/01/12 02:38:59;;;;;;;4.57;1.50;;;;;;;6.70;100.00;98417.66;5033166;28;20638;-73
2023/01/12 02:44:48;;;;;;;5.37;1.33;;;;;;;6.72;100.00;98412.19;5034513;28;20216;-73
2023/01/12 02:47:25;;;;;;;7.07;1.37;;;;;;;6.79;100.00;98410.47;5034184;28;20194;-73
2023/01/12 02:49:54;;;;;;;4.10;1.83;;;;;;;6.76;100.00;98398.44;5033246;28;20201;-73
2023/01/12 02:52:25;;;;;;;4.70;1.00;;;;;;;6.90;100.00;98400.22;5033080;28;20228;-73
2023/01/12 02:54:54;;;;;;;5.83;2.00;;;;;;;6.85;100.00;98392.03;5034337;28;20194;-73
2023/01/12 02:57:24;;;;;;;6.30;1.60;;;;;;;6.77;100.00;98381.56;5034734;28;20209;-73
2023/01/12 02:59:52;;;;;;;9.97;1.40;;;;;;;6.75;100.00;98375.66;5034125;28;20289;-73
2023/01/12 03:02:22;;;;;;;7.00;1.60;;;;;;;6.62;100.00;98379.97;5032885;28;20226;-73
2023/01/12 03:04:48;;;;;;;4.97;1.30;;;;;;;6.64;100.00;98383.25;5034122;28;20202;-73
2023/01/12 03:07:15;;;;;;;6.00;1.50;;;;;;;6.65;100.00;98369.06;5033742;28;20205;-73
2023/01/12 03:09:51;;;;;;;6.30;1.90;;;;;;;6.71;100.00;98366.47;5034003;28;20210;-73
2023/01/12 03:12:22;;;;;;;5.80;1.50;;;;;;;6.63;100.00;98363.13;5033481;28;20241;-73
2023/01/12 03:14:51;;;;;;;7.97;1.53;;;;;;;6.81;100.00;98374.09;5034045;28;20194;-73
2023/01/12 03:17:27;;;;;;;6.43;1.63;;;;;;;6.88;100.00;98393.50;5033925;28;20210;-73
2023/01/12 03:19:56;;;;;;;5.47;1.47;;;;;;;6.89;100.00;98390.66;5033417;28;20280;-73
2023/01/12 03:22:23;;;;;;;5.73;1.33;;;;;;;6.72;100.00;98389.25;5033805;28;20232;-73
2023/01/12 03:24:57;;;;;;;5.23;1.40;;;;;;;6.75;100.00;98382.78;5033816;28;20210;-73
2023/01/12 03:27:40;;;;;;;4.60;1.73;;;;;;;6.75;100.00;98377.50;5033868;28;20194;-73
2023/01/12 03:30:12;;;;;;;3.53;1.30;;;;;;;6.71;100.00;98384.16;5033451;28;20660;-73
2023/01/12 03:32:39;;;;;;;4.63;1.43;;;;;;;6.69;100.00;98372.97;5032987;28;20232;-73
2023/01/12 03:35:07;;;;;;;7.27;1.60;;;;;;;6.73;100.00;98384.75;5033260;28;20695;-73
2023/01/12 03:37:54;;;;;;;7.37;1.60;;;;;;;6.53;100.00;98375.81;5033691;28;20213;-73
2023/01/12 03:40:29;;;;;;;6.43;1.60;;;;;;;6.57;100.00;98382.38;5032376;28;20214;-73
2023/01/12 03:42:59;;;;;;;8.20;1.90;;;;;;;6.60;100.00;98382.00;5033580;28;20233;-73
2023/01/12 03:45:57;;;;;;;6.50;1.53;;;;;;;6.52;100.00;98382.91;5033294;28;20206;-73
2023/01/12 03:48:38;;;;;;;4.40;1.70;;;;;;;6.53;100.00;98386.38;5033572;28;20645;-73
2023/01/12 03:51:12;;;;;;;6.77;1.20;;;;;;;6.52;100.00;98385.53;5033428;28;20222;-73
2023/01/12 03:53:40;;;;;;;5.50;1.40;;;;;;;6.80;100.00;98372.47;5033479;28;20201;-73
2023/01/12 03:56:09;;;;;;;5.93;1.53;;;;;;;6.73;100.00;98376.84;5033434;28;20212;-73
2023/01/12 03:58:36;;;;;;;8.33;1.40;;;;;;;6.74;100.00;98379.31;5033378;28;20206;-73
2023/01/12 04:01:04;;;;;;;8.10;1.67;;;;;;;6.81;100.00;98380.19;5033189;28;20611;-73
2023/01/12 04:03:31;;;;;;;6.13;1.83;;;;;;;6.78;100.00;98379.78;5033086;28;20209;-73
2023/01/12 04:05:57;;;;;;;5.90;1.47;;;;;;;6.84;100.00;98371.88;5032923;28;20209;-73
2023/01/12 04:08:23;;;;;;;6.07;1.40;;;;;;;6.90;100.00;98372.97;5032977;28;20684;-73
2023/01/12 04:10:50;;;;;;;6.07;1.60;;;;;;;6.92;100.00;98365.69;5033111;28;20208;-73
2023/01/12 04:13:15;;;;;;;6.73;1.60;;;;;;;6.90;100.00;98372.97;5032703;28;20225;-73
2023/01/12 04:15:42;;;;;;;6.20;1.77;;;;;;;6.80;100.00;98368.00;5032879;28;20216;-73
2023/01/12 04:18:10;;;;;;;8.13;1.73;;;;;;;6.88;100.00;98369.69;5032597;28;20289;-73
2023/01/12 04:20:36;;;;;;;5.13;1.40;;;;;;;7.03;100.00;98366.00;5032802;28;20229;-73
2023/01/12 04:23:01;;;;;;;6.40;1.60;;;;;;;7.08;100.00;98363.59;5033056;28;20233;-73
2023/01/12 04:25:28;;;;;;;4.97;1.33;;;;;;;7.06;100.00;98360.31;5033039;28;20202;-72
2023/01/12 04:27:58;;;;;;;6.27;1.70;;;;;;;7.10;100.00;98355.50;5032859;28;20212;-73
2023/01/12 04:30:26;;;;;;;4.87;1.50;;;;;;;7.29;98.13;98358.28;5033124;28;20248;-73
2023/01/12 04:32:54;;;;;;;8.43;1.80;;;;;;;7.10;100.00;98353.63;5032801;28;20222;-73
2023/01/12 04:35:21;;;;;;;9.03;1.50;;;;;;;7.15;100.00;98342.50;5031851;28;20641;-73
2023/01/12 04:37:47;;;;;;;9.07;1.37;;;;;;;7.06;100.00;98330.44;5032155;28;20221;-73
2023/01/12 04:40:15;;;;;;;7.87;1.67;;;;;;;6.97;100.00;98331.56;5032186;28;20217;-73
2023/01/12 04:43:03;;;;;;;8.47;1.73;;;;;;;6.97;100.00;98332.38;5032549;28;20222;-73
2023/01/12 04:45:38;;;;;;;5.77;2.03;;;;;;;7.09;100.00;98320.28;5035936;28;20194;-73
2023/01/12 04:48:08;;;;;;;7.30;1.60;;;;;;;7.08;100.00;98321.31;5036455;28;20240;-73
2023/01/12 04:50:35;;;;;;;10.10;1.83;;;;;;;7.14;100.00;98317.06;5036518;28;20196;-73
2023/01/12 04:53:03;;;;;;;7.97;1.73;;;;;;;7.13;100.00;98316.25;5035805;28;20236;-73
2023/01/12 04:55:29;;;;;;;4.83;1.43;;;;;;;7.07;100.00;98303.81;5036417;28;20221;-73
2023/01/12 04:57:56;;;;;;;7.70;2.07;;;;;;;7.02;100.00;98313.31;5036085;28;20210;-73
2023/01/12 05:00:23;;;;;;;7.00;1.97;;;;;;;7.01;100.00;98311.69;5036226;28;20604;-73
2023/01/12 05:02:52;;;;;;;7.80;2.03;;;;;;;6.95;100.00;98302.69;5035927;28;20225;-73
2023/01/12 05:05:18;;;;;;;8.30;1.93;;;;;;;6.91;100.00;98296.13;5035521;28;20209;-73
2023/01/12 05:10:25;;;;;;;7.07;1.80;;;;;;;6.93;100.00;98309.16;5035620;28;20244;-73
2023/01/12 05:12:51;;;;;;;7.40;1.70;;;;;;;6.96;100.00;98301.66;5035670;28;20241;-73
2023/01/12 05:15:18;;;;;;;10.17;1.83;;;;;;;7.02;100.00;98308.03;5035954;28;20209;-73
2023/01/12 05:17:44;;;;;;;6.40;1.67;;;;;;;7.00;100.00;98313.50;5035870;28;20224;-73
2023/01/12 05:20:11;;;;;;;7.53;1.80;;;;;;;7.14;100.00;98314.41;5035414;28;20209;-72
2023/01/12 05:22:37;;;;;;;6.33;1.70;;;;;;;7.21;100.00;98315.31;5035520;28;20240;-73
2023/01/12 05:25:04;;;;;;;5.87;1.70;;;;;;;7.21;100.00;98313.50;5035613;28;20206;-73
2023/01/12 05:27:30;;;;;;;7.80;1.97;;;;;;;7.29;100.00;98305.38;5035452;28;20206;-72
2023/01/12 05:29:58;;;;;;;8.70;1.83;;;;;;;7.34;100.00;98304.84;5035379;28;20216;-73
2023/01/12 05:32:25;;;;;;;9.23;1.87;;;;;;;7.33;99.71;98303.19;5035120;28;20712;-72
2023/01/12 05:34:52;;;;;;;7.80;1.50;;;;;;;7.41;98.48;98297.75;5035332;28;20202;-73
2023/01/12 05:37:18;;;;;;;5.20;1.37;;;;;;;7.45;98.02;98288.41;5034768;28;20213;-73
2023/01/12 05:39:45;;;;;;;4.97;1.40;;;;;;;7.46;97.78;98300.66;5034697;28;20213;-72
2023/01/12 05:44:54;;;;;;;8.53;1.70;;;;;;;7.49;96.88;98293.13;5034819;28;20181;-72
2023/01/12 05:47:21;;;;;;;14.77;2.23;;;;;;;7.58;95.20;98301.72;5034913;28;20202;-72
2023/01/12 05:49:47;;;;;;;10.17;1.93;;;;;;;7.49;97.07;98305.53;5035166;28;20210;-73
2023/01/12 05:52:13;;;;;;;9.13;1.87;;;;;;;7.56;96.26;98298.47;5034857;28;20229;-72
2023/01/12 05:54:40;;;;;;;9.10;1.93;;;;;;;7.53;95.93;98301.50;5034567;28;20205;-72
2023/01/12 05:57:06;;;;;;;9.43;1.70;;;;;;;7.57;95.42;98302.75;5035048;28;20220;-73
2023/01/12 05:59:32;;;;;;;8.80;1.70;;;;;;;7.45;97.54;98309.56;5034535;28;20206;-73
2023/01/12 06:01:59;;;;;;;6.47;1.57;;;;;;;7.47;96.94;98305.72;5034137;28;20230;-73
2023/01/12 06:04:25;;;;;;;7.63;2.07;;;;;;;7.44;97.25;98292.06;5034554;28;20221;-73
2023/01/12 06:06:52;;;;;;;6.03;1.70;;;;;;;7.50;96.27;98286.84;5034572;28;20205;-73
2023/01/12 06:09:18;;;;;;;8.93;1.63;;;;;;;7.51;96.14;98292.94;5034314;28;20206;-73
2023/01/12 06:14:28;;;;;;;7.30;1.83;;;;;;;7.48;96.18;98296.81;5034309;28;20685;-73
2023/01/12 06:16:55;;;;;;;5.90;1.90;;;;;;;7.27;98.61;98288.09;5034635;28;20274;-73
2023/01/12 06:19:21;;;;;;;6.10;1.77;;;;;;;7.27;99.24;98286.25;5034555;28;20216;-73
2023/01/12 06:21:47;;;;;;;6.83;1.70;;;;;;;7.30;97.93;98279.78;5034122;28;20237;-73
2023/01/12 06:24:14;;;;;;;6.80;2.33;;;;;;;7.36;97.29;98274.53;5034155;28;20203;-73
2023/01/12 06:26:43;;;;;;;9.17;1.77;;;;;;;7.31;98.21;98270.81;5034054;28;20210;-73
2023/01/12 06:29:10;;;;;;;6.33;1.63;;;;;;;7.41;98.21;98258.06;5034037;28;20216;-72
2023/01/12 06:31:37;;;;;;;8.03;1.97;;;;;;;7.35;98.34;98256.22;5033781;28;20830;-73
2023/01/12 06:34:06;;;;;;;11.30;2.13;;;;;;;7.39;97.98;98246.88;5034661;28;20214;-73
2023/01/12 06:36:32;;;;;;;13.13;2.10;;;;;;;7.39;98.12;98250.34;5033382;28;20297;-73
2023/01/12 06:38:59;;;;;;;5.67;2.03;;;;;;;7.45;97.61;98254.03;5033960;28;20212;-72
2023/01/12 06:44:09;;;;;;;7.10;2.20;;;;;;;7.36;99.68;98244.63;5033488;28;20177;-73
2023/01/12 06:46:35;;;;;;;7.10;1.60;;;;;;;7.40;98.15;98251.97;5033778;28;20202;-72
2023/01/12 06:49:02;;;;;;;5.53;2.13;;;;;;;7.24;100.00;98254.91;5033297;28;20605;-72
2023/01/12 06:51:28;;;;;;;7.67;1.90;;;;;;;7.26;99.46;98260.00;5033055;28;20555;-72
2023/01/12 06:53:55;;;;;;;7.93;1.80;;;;;;;7.27;99.71;98265.13;5033443;28;20208;-72
2023/01/12 06:56:21;;;;;;;7.90;2.07;;;;;;;7.42;98.46;98278.25;5033383;28;20235;-72
2023/01/12 06:58:48;;;;;;;5.50;1.43;;;;;;;7.52;97.22;98268.13;5033486;28;20680;-72
2023/01/12 07:01:15;;;;;;;6.77;1.53;;;;;;;7.39;98.78;98271.50;5033540;28;20226;-72
2023/01/12 07:03:43;;;;;;;6.63;1.93;;;;;;;7.44;98.50;98261.16;5032955;28;20201;-72
2023/01/12 07:06:09;;;;;;;9.17;2.23;;;;;;;7.43;98.46;98258.72;5032994;28;20787;-72
2023/01/12 07:08:36;;;;;;;9.37;1.90;;;;;;;7.38;99.71;98261.91;5032438;28;20252;-72
2023/01/12 07:11:07;;;;;;;6.23;1.50;;;;;;;7.36;99.32;98253.38;5033138;28;20584;-72
2023/01/12 07:13:34;;;;;;;6.97;1.50;;;;;;;7.36;100.00;98247.25;5033304;28;20190;-72
2023/01/12 07:16:01;;;;;;;6.20;1.40;;;;;;;7.40;99.39;98238.75;5032927;28;20213;-72
2023/01/12 07:18:29;;;;;;;6.20;1.80;;;;;;;7.42;99.07;98247.31;5033806;28;20222;-72
2023/01/12 07:20:55;;;;;;;5.23;1.37;;;;;;;7.49;98.62;98242.06;5032875;28;20210;-72
2023/01/12 07:23:22;;;;;;;6.63;2.23;;;;;;;7.54;97.92;98256.34;5033193;28;20293;-72
2023/01/12 07:25:48;;;;;;;6.50;1.70;;;;;;;7.64;96.80;98250.69;5033176;28;20213;-72
2023/01/12 07:28:15;;;;;;;6.83;1.97;;;;;;;7.59;97.69;98253.91;5032564;28;20205;-72
2023/01/12 07:30:42;;;;;;;8.50;1.83;;;;;;;7.66;96.39;98259.25;5033089;28;20212;-72
2023/01/12 07:33:13;;;;;;;6.80;1.63;;;;;;;7.74;95.99;98259.09;5033269;28;20202;-72
2023/01/12 07:35:41;;;;;;;6.60;1.70;;;;;;;7.79;94.74;98256.69;5032946;28;20699;-72
2023/01/12 07:38:08;;;;;;;4.57;1.20;;;;;;;7.86;94.31;98255.69;5033249;28;20214;-72
2023/01/12 07:40:35;;;;;;;8.10;1.63;;;;;;;7.77;95.88;98270.09;5033214;28;20210;-72
2023/01/12 07:43:07;;;;;;;9.40;2.10;;;;;;;7.71;96.44;98256.84;5033642;28;20234;-72
2023/01/12 07:45:34;;;;;;;6.00;1.40;;;;;;;7.91;93.61;98261.22;5033433;28;20194;-72
2023/01/12 07:48:00;;;;;;;5.27;1.40;;;;;;;7.98;92.15;98272.66;5033182;28;20210;-74
2023/01/12 07:50:28;;;;;;;4.03;1.50;;;;;;;8.00;92.40;98256.53;5033072;28;20210;-72
2023/01/12 07:52:55;;;;;;;7.37;1.50;;;;;;;7.96;93.29;98256.13;5032385;28;20225;-71
2023/01/12 07:55:21;;;;;;;6.10;1.63;;;;;;;7.95;92.77;98264.25;5032982;28;20205;-71
2023/01/12 07:57:58;;;;;;;5.27;1.67;;;;;;;7.94;93.18;98252.06;5032759;28;20209;-70
2023/01/12 08:00:26;;;;;;;6.93;2.00;;;;;;;7.94;93.80;98265.28;5032506;28;20213;-70
2023/01/12 08:02:54;;;;;;;7.70;1.60;;;;;;;7.95;93.11;98256.31;5032740;28;20240;-71
2023/01/12 08:05:22;;;;;;;4.77;1.30;;;;;;;7.92;93.15;98256.75;5032957;28;20208;-71
2023/01/12 08:07:48;;;;;;;7.00;1.60;;;;;;;7.89;93.16;98259.78;5032977;28;20538;-71
2023/01/12 08:10:16;;;;;;;5.27;1.70;;;;;;;7.89;94.28;98254.47;5032761;28;20202;-71
2023/01/12 08:12:42;;;;;;;3.93;1.40;;;;;;;7.85;94.03;98248.78;5032309;28;20252;-71
2023/01/12 08:15:11;;;;;;;5.70;1.60;;;;;;;7.87;93.95;98259.16;5032669;28;20212;-71
2023/01/12 08:17:42;;;;;;;7.87;1.70;;;;;;;7.90;93.39;98258.75;5032368;28;20216;-71
2023/01/12 08:20:16;;;;;;;6.40;1.40;;;;;;;7.97;91.47;98241.88;5036475;28;20200;-70
2023/01/12 08:22:47;;;;;;;8.13;1.50;;;;;;;7.96;92.74;98250.84;5034368;28;20222;-71
2023/01/12 08:25:18;;;;;;;5.57;1.43;;;;;;;7.99;91.38;98254.91;5036480;28;20222;-71
2023/01/12 08:27:49;;;;;;;6.23;1.37;;;;;;;7.98;91.97;98256.78;5037160;28;20213;-71
2023/01/12 08:30:19;;;;;;;5.97;1.70;;;;;;;7.94;92.67;98252.06;5036567;28;20194;-71
2023/01/12 08:32:45;;;;;;;6.97;1.80;;;;;;;7.95;91.71;98243.09;5036469;28;20228;-71
2023/01/12 08:35:16;;;;;;;7.07;1.87;;;;;;;7.92;93.07;98264.69;5035200;28;20206;-71
2023/01/12 08:37:43;;;;;;;3.93;1.60;;;;;;;7.91;93.69;98263.03;5035372;28;20186;-71
2023/01/12 08:40:10;;;;;;;4.23;1.43;;;;;;;7.92;94.42;98254.09;5036445;28;20206;-71
2023/01/12 08:42:37;;;;;;;7.67;1.97;;;;;;;7.91;94.09;98268.31;5036204;28;20239;-71
2023/01/12 08:45:06;;;;;;;5.60;1.33;;;;;;;8.02;93.11;98259.84;5036060;28;20212;-71
2023/01/12 08:47:33;;;;;;;3.97;1.30;;;;;;;8.03;91.91;98254.34;5036002;28;20220;-71
2023/01/12 08:50:00;;;;;;;9.10;1.70;;;;;;;7.93;93.63;98263.66;5036243;28;20215;-71
2023/01/12 08:52:28;;;;;;;5.10;1.40;;;;;;;7.96;93.45;98264.06;5035923;28;20321;-71
2023/01/12 08:54:55;;;;;;;6.23;1.50;;;;;;;7.99;93.40;98261.03;5036190;28;20209;-71
2023/01/12 08:57:22;;;;;;;5.17;1.40;;;;;;;8.03;93.32;98250.88;5036188;28;20206;-71
2023/01/12 08:59:48;;;;;;;3.73;1.50;;;;;;;8.08;92.72;98262.50;5036646;28;20232;-71
2023/01/12 09:02:16;;;;;;;6.40;1.40;;;;;;;8.08;92.24;98251.91;5035620;28;20226;-71
2023/01/12 09:04:42;;;;;;;5.47;1.40;;;;;;;8.11;93.87;98256.00;5035976;28;20204;-71
2023/01/12 09:07:11;;;;;;;4.40;1.47;;;;;;;8.10;93.63;98259.66;5036009;28;20268;-71
2023/01/12 09:09:37;;;;;;;6.87;1.77;;;;;;;8.22;91.92;98264.22;5035694;28;20202;-71
2023/01/12 09:12:05;;;;;;;5.43;1.30;;;;;;;8.18;93.02;98259.47;5035499;28;20226;-71
2023/01/12 09:14:37;;;;;;;4.20;1.60;;;;;;;8.29;91.56;98259.72;5035743;28;20233;-71
2023/01/12 09:17:03;;;;;;;4.30;1.37;;;;;;;8.33;91.44;98260.19;5035842;28;20272;-71
2023/01/12 09:19:30;;;;;;;4.00;1.00;;;;;;;8.28;91.85;98260.75;5035909;28;20252;-71
2023/01/12 09:21:56;;;;;;;4.57;1.47;;;;;;;8.34;91.64;98270.56;5035693;28;20226;-71
2023/01/12 09:24:23;;;;;;;3.90;1.33;;;;;;;8.37;91.30;98269.38;5035689;28;20212;-71
2023/01/12 09:26:49;;;;;;;3.53;1.37;;;;;;;8.32;92.67;98277.09;5035814;28;20210;-71
2023/01/12 09:29:15;;;;;;;5.83;1.53;;;;;;;8.32;92.95;98287.69;5035051;28;20241;-71
2023/01/12 09:31:44;;;;;;;6.10;1.37;;;;;;;8.35;92.58;98280.16;5034484;28;20226;-71
2023/01/12 09:34:11;;;;;;;5.77;1.67;;;;;;;8.40;93.25;98285.66;5035532;28;20293;-71
2023/01/12 09:36:39;;;;;;;5.87;1.33;;;;;;;8.49;92.27;98283.63;5034792;28;20700;-71
2023/01/12 09:39:07;;;;;;;5.33;1.10;;;;;;;8.50;91.90;98279.97;5034991;28;20703;-70
2023/01/12 09:47:48;;;;;;;6.17;1.30;;;;;;;8.66;93.12;98275.13;5035309;28;20497;-71
2023/01/12 09:50:19;;;;;;;5.60;1.30;;;;;;;8.73;91.86;98273.28;5034871;28;20655;-71
2023/01/12 09:52:58;;;;;;;6.53;1.33;;;;;;;8.81;91.26;98256.38;5032654;28;20226;-71
2023/01/12 09:55:32;;;;;;;4.40;1.57;;;;;;;8.88;90.74;98265.16;5034141;28;20216;-71
2023/01/12 09:58:19;;;;;;;6.23;1.30;;;;;;;8.91;90.64;98259.47;5033234;28;20207;-70
2023/01/12 10:00:51;;;;;;;6.97;1.23;;;;;;;8.97;90.54;98246.19;5034333;28;20209;-70
2023/01/12 10:03:34;;;;;;;5.37;1.30;;;;;;;8.99;88.81;98246.81;5033668;28;20209;-69
2023/01/12 10:06:01;;;;;;;5.87;1.20;;;;;;;8.97;91.06;98242.72;5035401;28;20194;-70
2023/01/12 10:08:40;;;;;;;5.80;1.40;;;;;;;8.97;91.48;98237.44;5034877;28;20564;-70
2023/01/12 10:11:33;;;;;;;3.93;1.20;;;;;;;9.06;88.88;98228.25;5035000;28;20225;-70
2023/01/12 10:14:23;;;;;;;4.20;1.40;;;;;;;9.08;89.72;98231.50;5035273;28;20522;-70
2023/01/12 10:16:58;;;;;;;7.60;1.43;;;;;;;9.18;90.21;98229.25;5034765;28;20195;-70
2023/01/12 10:19:31;;;;;;;4.47;1.17;;;;;;;9.14;88.98;98226.19;5034604;28;20201;-70
2023/01/12 10:22:02;;;;;;;3.80;1.10;;;;;;;9.21;88.74;98216.41;5034391;28;20226;-70
2023/01/12 10:24:29;;;;;;;4.00;1.43;;;;;;;9.21;88.55;98210.28;5034506;28;20602;-70
2023/01/12 10:27:03;;;;;;;5.50;1.40;;;;;;;9.22;88.34;98212.72;5034161;28;20206;-70
2023/01/12 10:29:31;;;;;;;5.23;1.30;;;;;;;9.25;88.10;98211.50;5034280;28;20194;-70
2023/01/12 10:31:58;;;;;;;6.73;1.40;;;;;;;9.25;87.31;98222.94;5033054;28;20232;-70
2023/01/12 10:34:24;;;;;;;5.93;1.23;;;;;;;9.31;86.49;98219.44;5033955;28;20216;-69
2023/01/12 10:36:57;;;;;;;3.57;1.10;;;;;;;9.42;85.45;98215.34;5034184;28;20241;-70
2023/01/12 10:39:30;;;;;;;3.07;1.50;;;;;;;9.42;87.35;98215.34;5034383;28;20717;-69
2023/01/12 10:45:14;;;;;;;3.20;1.00;;;;;;;9.42;87.57;98218.78;5034059;28;20224;-69
2023/01/12 10:47:41;;;;;;;6.77;1.33;;;;;;;9.36;85.92;98224.13;5033735;28;20308;-70
2023/01/12 10:50:30;;;;;;;4.80;1.17;;;;;;;9.35;85.48;98225.97;5033618;28;20673;-70
2023/01/12 10:53:13;;;;;;;2.87;1.00;;;;;;;9.34;85.92;98227.00;5033960;28;20360;-70
2023/01/12 10:55:41;;;;;;;3.53;1.00;;;;;;;9.35;85.98;98214.53;5034648;28;20281;-74
2023/01/12 10:58:22;;;;;;;4.13;1.00;;;;;;;9.35;85.89;98202.09;5033335;28;20213;-71
2023/01/12 11:00:51;;;;;;;4.40;1.00;;;;;;;9.38;86.74;98209.66;5032692;28;20196;-71
2023/01/12 11:03:32;;;;;;;6.43;1.23;;;;;;;9.44;85.94;98203.50;5033177;28;20237;-71
2023/01/12 11:06:26;;;;;;;2.80;0.80;;;;;;;9.41;86.42;98181.88;5033671;28;20206;-71
2023/01/12 11:08:53;;;;;;;4.60;1.50;;;;;;;9.44;86.27;98186.75;5033711;28;20195;-71
2023/01/12 11:11:32;;;;;;;2.33;0.90;;;;;;;9.48;84.24;98182.66;5033690;28;20237;-71
2023/01/12 11:14:01;;;;;;;5.27;1.13;;;;;;;9.48;85.35;98175.53;5033413;28;20186;-71
2023/01/12 11:16:38;;;;;;;1.73;0.83;;;;;;;9.50;83.92;98185.94;5033578;28;20202;-70
2023/01/12 11:19:23;;;;;;;3.77;0.90;;;;;;;9.49;84.24;98182.44;5033303;28;20190;-70
2023/01/12 11:22:15;;;;;;;1.70;1.03;;;;;;;9.47;84.62;98184.50;5033353;28;20735;-70
2023/01/12 11:24:54;;;;;;;2.10;0.77;;;;;;;9.41;85.53;98173.91;5033377;28;20196;-70
2023/01/12 11:27:39;;;;;;;2.50;0.80;;;;;;;9.40;84.69;98180.22;5031782;28;20194;-70
2023/01/12 11:30:17;;;;;;;2.33;0.80;;;;;;;9.44;84.91;98184.09;5034084;28;20244;-70
2023/01/12 11:32:51;;;;;;;3.30;0.90;;;;;;;9.48;83.43;98174.69;5032720;28;20233;-70
2023/01/12 11:35:29;;;;;;;1.57;0.70;;;;;;;9.53;84.11;98180.19;5033271;28;20564;-70
2023/01/12 11:38:03;;;;;;;1.53;0.70;;;;;;;9.63;83.38;98168.13;5033042;28;20208;-70
2023/01/12 11:40:36;;;;;;;1.93;0.80;;;;;;;9.69;84.15;98166.47;5033313;28;20372;-70
2023/01/12 11:43:50;;;;;;;2.77;0.77;;;;;;;9.73;83.72;98155.19;5032703;28;20234;-70
2023/01/12 11:46:33;;;;;;;5.30;1.80;;;;;;;9.72;84.27;98148.28;5032631;28;20205;-70
2023/01/12 11:49:05;;;;;;;2.60;0.70;;;;;;;9.74;83.87;98145.41;5032874;28;20201;-70
2023/01/12 11:51:32;;;;;;;2.77;0.80;;;;;;;9.70;83.92;98150.34;5032732;28;20230;-70
2023/01/12 11:53:59;;;;;;;3.40;0.70;;;;;;;9.62;84.91;98150.56;5035654;28;20212;-70
2023/01/12 11:57:04;;;;;;;2.60;0.70;;;;;;;9.65;84.44;98139.50;5039301;28;20227;-70
2023/01/12 12:00:14;;;;;;;2.43;0.57;;;;;;;9.65;85.00;98128.88;5038950;28;20220;-70
2023/01/12 12:02:46;;;;;;;3.40;0.80;;;;;;;9.64;84.36;98137.88;5038077;28;20236;-71
2023/01/12 12:05:43;;;;;;;1.77;0.90;;;;;;;9.59;84.50;98135.03;5040030;28;20194;-70
2023/01/12 12:08:53;;;;;;;0.73;0.60;;;;;;;9.57;85.04;98137.13;5039211;28;20194;-70
2023/01/12 12:11:30;;;;;;;2.00;0.80;;;;;;;9.55;85.23;98133.84;5039177;28;20238;-70
2023/01/12 12:14:18;;;;;;;2.63;1.10;;;;;;;9.47;86.96;98135.91;5039019;28;20186;-70
2023/01/12 12:17:10;;;;;;;3.67;0.63;;;;;;;9.52;86.44;98130.78;5039311;28;20213;-70
2023/01/12 12:19:58;;;;;;;1.23;0.50;;;;;;;9.70;85.80;98133.59;5040076;28;20186;-70
2023/01/12 12:23:01;;;;;;;0.87;0.50;;;;;;;9.75;86.32;98133.75;5038963;28;20589;-70
2023/01/12 12:25:53;;;;;;;1.30;0.70;;;;;;;9.91;85.18;98134.06;5037966;28;20194;-70
2023/01/12 12:28:38;;;;;;;2.00;0.70;;;;;;;9.85;84.55;98129.63;5038974;28;20189;-70
2023/01/12 12:31:50;;;;;;;2.27;0.73;;;;;;;9.88;85.58;98123.91;5039419;28;20221;-70
2023/01/12 12:34:54;;;;;;;1.13;0.57;;;;;;;9.99;84.42;98120.56;5002005;28;20211;-70